Time;durP1;ratioP1;P1;durP2;ratioP2;P2;SDS_P1;SDS_P2;PMS_P1;PMS_P2;Temp;Humidity;BMP_temperature;BMP_pressure;BME280_temperature;BME280_humidity;BME280_pressure;Samples;Min_cycle;Max_cycle;Signal;HPM_P1;HPM_P2
2023/10/25 00:00:37;;;;;;;4.50;2.17;;;;;;;12.83;100.00;99726.75;5015953;28;20451;-73
2023/10/25 00:03:04;;;;;;;6.33;2.60;;;;;;;12.87;100.00;99731.16;5015632;28;20634;-72
2023/10/25 00:05:32;;;;;;;4.80;2.20;;;;;;;12.83;100.00;99730.25;5015207;28;20843;-73
2023/10/25 00:07:59;;;;;;;5.40;2.50;;;;;;;12.84;100.00;99722.91;5015692;28;20440;-73
2023/10/25 00:10:27;;;;;;;5.27;2.83;;;;;;;12.79;100.00;99725.81;5015773;28;20780;-73
2023/10/25 00:12:54;;;;;;;6.60;2.50;;;;;;;12.79;100.00;99729.34;5015694;28;20463;-71
2023/10/25 00:15:21;;;;;;;7.93;3.27;;;;;;;12.83;100.00;99730.25;5015949;28;20488;-70
2023/10/25 00:17:48;;;;;;;5.47;2.67;;;;;;;12.85;100.00;99732.66;5015678;28;20914;-73
2023/10/25 00:20:15;;;;;;;4.37;2.40;;;;;;;12.78;100.00;99733.19;5015416;28;20534;-72
2023/10/25 00:22:42;;;;;;;8.97;3.13;;;;;;;12.81;100.00;99731.72;5015876;28;20455;-72
2023/10/25 00:25:09;;;;;;;4.60;2.37;;;;;;;12.78;100.00;99738.63;5015660;28;20543;-72
2023/10/25 00:27:37;;;;;;;5.47;2.23;;;;;;;12.78;100.00;99738.63;5015569;28;20448;-73
2023/10/25 00:30:04;;;;;;;4.13;1.80;;;;;;;12.77;100.00;99739.75;5015871;28;20440;-73
2023/10/25 00:32:31;;;;;;;5.30;2.10;;;;;;;12.79;100.00;99739.41;5015409;28;20451;-73
2023/10/25 00:34:58;;;;;;;4.03;2.07;;;;;;;12.81;100.00;99742.59;5014905;28;20915;-73
2023/10/25 00:37:25;;;;;;;4.70;2.27;;;;;;;12.79;100.00;99734.78;5015609;28;20452;-73
2023/10/25 00:39:53;;;;;;;4.20;1.80;;;;;;;12.79;100.00;99731.25;5015305;28;20458;-73
2023/10/25 00:42:20;;;;;;;4.77;1.90;;;;;;;12.77;100.00;99731.59;5015168;28;20448;-73
2023/10/25 00:44:47;;;;;;;4.27;2.10;;;;;;;12.78;100.00;99735.91;5015126;28;20467;-73
2023/10/25 00:47:14;;;;;;;4.07;1.73;;;;;;;12.77;100.00;99723.44;5014840;28;20980;-73
2023/10/25 00:49:41;;;;;;;4.00;2.20;;;;;;;12.76;100.00;99730.03;5015247;28;20523;-72
2023/10/25 00:52:07;;;;;;;3.90;1.70;;;;;;;12.75;100.00;99725.72;5015248;28;20526;-73
2023/10/25 00:54:36;;;;;;;3.97;1.73;;;;;;;12.71;100.00;99730.25;5014806;28;20494;-72
2023/10/25 00:57:04;;;;;;;4.10;2.03;;;;;;;12.70;100.00;99719.69;5015101;28;20543;-73
2023/10/25 00:59:32;;;;;;;5.00;2.40;;;;;;;12.65;100.00;99720.69;5014877;28;20435;-73
2023/10/25 01:02:00;;;;;;;4.13;1.93;;;;;;;12.65;100.00;99722.63;5014893;28;20479;-72
2023/10/25 01:04:28;;;;;;;4.27;1.47;;;;;;;12.56;100.00;99725.44;5014692;28;20483;-72
2023/10/25 01:06:55;;;;;;;4.60;2.07;;;;;;;12.56;100.00;99722.72;5014798;28;20456;-72
2023/10/25 01:09:21;;;;;;;3.50;1.60;;;;;;;12.51;100.00;99715.56;5014931;28;20447;-72
2023/10/25 01:11:48;;;;;;;3.30;1.33;;;;;;;12.49;100.00;99717.06;5015007;28;20527;-72
2023/10/25 01:14:14;;;;;;;2.97;1.50;;;;;;;12.49;100.00;99719.75;5014667;28;20583;-72
2023/10/25 01:16:41;;;;;;;3.17;1.53;;;;;;;12.45;100.00;99713.41;5014051;28;20444;-72
2023/10/25 01:19:09;;;;;;;3.80;1.63;;;;;;;12.44;100.00;99711.81;5014236;28;20945;-72
2023/10/25 01:21:36;;;;;;;2.83;1.00;;;;;;;12.41;100.00;99715.22;5014069;28;20835;-72
2023/10/25 01:24:04;;;;;;;6.10;1.80;;;;;;;12.41;100.00;99713.28;5014371;28;20546;-72
2023/10/25 01:26:31;;;;;;;3.03;1.43;;;;;;;12.41;100.00;99712.50;5014800;28;20462;-72
2023/10/25 01:28:57;;;;;;;2.80;1.10;;;;;;;12.44;100.00;99709.09;5014044;28;20440;-72
2023/10/25 01:31:24;;;;;;;4.73;2.23;;;;;;;12.46;100.00;99709.56;5014518;28;20930;-72
2023/10/25 01:33:51;;;;;;;3.93;1.63;;;;;;;12.48;100.00;99710.00;5014539;28;20475;-73
2023/10/25 01:36:18;;;;;;;3.00;1.30;;;;;;;12.49;100.00;99708.91;5013876;28;20488;-72
2023/10/25 01:38:45;;;;;;;4.77;1.80;;;;;;;12.49;100.00;99708.91;5014246;28;20436;-72
2023/10/25 01:41:16;;;;;;;4.07;1.93;;;;;;;12.49;100.00;99709.69;5014303;28;20539;-72
2023/10/25 01:43:42;;;;;;;3.63;1.97;;;;;;;12.49;100.00;99717.06;5014102;28;20459;-72
2023/10/25 01:46:09;;;;;;;4.53;2.20;;;;;;;12.46;100.00;99715.00;5014455;28;20468;-72
2023/10/25 01:48:37;;;;;;;5.20;2.43;;;;;;;12.50;100.00;99722.13;5014088;28;21032;-73
2023/10/25 01:51:05;;;;;;;7.17;2.30;;;;;;;12.46;100.00;99720.44;5014099;28;20440;-73
2023/10/25 01:53:32;;;;;;;5.03;3.00;;;;;;;12.43;100.00;99727.31;5014483;28;20447;-73
2023/10/25 01:55:58;;;;;;;5.57;3.47;;;;;;;12.45;100.00;99721.56;5014006;28;20542;-72
2023/10/25 01:58:26;;;;;;;6.57;2.63;;;;;;;12.42;100.00;99730.38;5014269;28;20518;-72
2023/10/25 02:00:53;;;;;;;6.40;3.50;;;;;;;12.36;100.00;99727.88;5013972;28;20527;-72
2023/10/25 02:03:19;;;;;;;7.27;2.77;;;;;;;12.38;100.00;99730.25;5014277;28;20530;-73
2023/10/25 02:05:46;;;;;;;5.83;2.27;;;;;;;12.34;100.00;99721.97;5013851;28;20463;-73
2023/10/25 02:08:13;;;;;;;5.67;2.43;;;;;;;12.37;100.00;99725.94;5013834;28;20527;-73
2023/10/25 02:10:39;;;;;;;6.27;3.13;;;;;;;12.35;100.00;99726.28;5013502;28;20444;-73
2023/10/25 02:13:06;;;;;;;6.60;3.17;;;;;;;12.32;100.00;99726.16;5014018;28;20535;-72
2023/10/25 02:15:34;;;;;;;5.60;2.90;;;;;;;12.33;100.00;99731.25;5013618;28;20523;-72
2023/10/25 02:18:00;;;;;;;6.67;2.87;;;;;;;12.38;100.00;99722.09;5013510;28;20929;-73
2023/10/25 02:20:29;;;;;;;6.13;2.90;;;;;;;12.37;100.00;99728.66;5013372;28;20456;-73
2023/10/25 02:22:55;;;;;;;6.60;3.33;;;;;;;12.37;100.00;99737.59;5013772;28;20475;-73
2023/10/25 02:25:22;;;;;;;5.20;2.70;;;;;;;12.41;100.00;99745.09;5013504;28;21032;-72
2023/10/25 02:27:48;;;;;;;7.37;3.33;;;;;;;12.39;100.00;99734.53;5014821;28;20535;-72
2023/10/25 02:30:15;;;;;;;6.70;3.13;;;;;;;12.29;100.00;99730.31;5018034;28;20458;-72
2023/10/25 02:32:43;;;;;;;7.97;3.07;;;;;;;12.21;100.00;99724.97;5017285;28;21005;-72
2023/10/25 02:35:10;;;;;;;7.50;2.50;;;;;;;12.19;100.00;99733.44;5018010;28;20487;-72
2023/10/25 02:37:36;;;;;;;6.23;3.30;;;;;;;12.13;100.00;99734.78;5017536;28;20518;-73
2023/10/25 02:40:04;;;;;;;6.37;3.23;;;;;;;12.04;100.00;99734.03;5017512;28;20531;-71
2023/10/25 02:42:30;;;;;;;5.40;2.87;;;;;;;12.04;100.00;99736.75;5017465;28;20538;-71
2023/10/25 02:44:57;;;;;;;5.37;2.93;;;;;;;12.07;100.00;99736.88;5017703;28;20456;-71
2023/10/25 02:47:23;;;;;;;6.27;2.93;;;;;;;12.11;100.00;99750.59;5017090;28;20475;-71
2023/10/25 02:49:51;;;;;;;6.33;3.63;;;;;;;12.09;100.00;99748.22;5017746;28;20494;-71
2023/10/25 02:52:18;;;;;;;7.97;4.03;;;;;;;12.05;100.00;99746.50;5017315;28;20953;-71
2023/10/25 02:54:45;;;;;;;7.43;3.27;;;;;;;12.06;100.00;99745.38;5017102;28;20491;-71
2023/10/25 02:57:11;;;;;;;7.83;3.87;;;;;;;12.04;100.00;99750.31;5017219;28;20464;-71
2023/10/25 02:59:38;;;;;;;10.17;4.50;;;;;;;12.02;100.00;99753.38;5017107;28;20499;-71
2023/10/25 03:02:05;;;;;;;8.20;3.97;;;;;;;12.06;100.00;99750.81;5017175;28;20467;-71
2023/10/25 03:04:32;;;;;;;9.60;3.80;;;;;;;12.09;100.00;99767.22;5017112;28;20456;-71
2023/10/25 03:07:00;;;;;;;6.30;2.73;;;;;;;12.03;100.00;99756.88;5017040;28;20441;-72
2023/10/25 03:09:27;;;;;;;5.40;2.60;;;;;;;12.06;100.00;99764.38;5017358;28;20523;-71
2023/10/25 03:11:53;;;;;;;8.07;3.87;;;;;;;12.09;100.00;99766.44;5017276;28;20440;-71
2023/10/25 03:14:20;;;;;;;9.83;4.30;;;;;;;12.10;100.00;99766.09;5016807;28;20542;-72
2023/10/25 03:16:49;;;;;;;10.23;3.80;;;;;;;12.08;100.00;99765.63;5016773;28;20562;-71
2023/10/25 03:19:15;;;;;;;8.20;3.93;;;;;;;12.09;100.00;99766.44;5016688;28;20544;-71
2023/10/25 03:21:42;;;;;;;6.60;3.63;;;;;;;12.11;100.00;99775.81;5016370;28;20535;-71
2023/10/25 03:24:09;;;;;;;6.00;3.40;;;;;;;12.11;100.00;99777.75;5016629;28;20491;-71
2023/10/25 03:26:36;;;;;;;5.43;2.53;;;;;;;12.10;100.00;99781.59;5016554;28;20480;-71
2023/10/25 03:29:02;;;;;;;5.50;3.00;;;;;;;12.07;100.00;99779.53;5016610;28;20498;-69
2023/10/25 03:31:29;;;;;;;6.13;2.90;;;;;;;12.05;100.00;99781.78;5016825;28;20476;-71
2023/10/25 03:33:55;;;;;;;5.07;2.90;;;;;;;11.95;100.00;99793.03;5016415;28;20495;-72
2023/10/25 03:36:22;;;;;;;7.10;3.33;;;;;;;11.86;100.00;99788.47;5016252;28;20851;-72
2023/10/25 03:38:49;;;;;;;6.03;3.47;;;;;;;11.78;100.00;99786.56;5015962;28;20530;-72
2023/10/25 03:41:17;;;;;;;7.40;3.23;;;;;;;11.77;100.00;99792.31;5016105;28;20446;-72
2023/10/25 03:43:44;;;;;;;4.90;2.67;;;;;;;11.72;100.00;99790.56;5016197;28;20475;-72
2023/10/25 03:46:10;;;;;;;6.47;3.80;;;;;;;11.66;100.00;99783.75;5016628;28;20519;-72
2023/10/25 03:48:38;;;;;;;6.23;3.30;;;;;;;11.65;100.00;99798.44;5015906;28;20442;-72
2023/10/25 03:51:05;;;;;;;5.87;3.23;;;;;;;11.61;100.00;99798.31;5015930;28;20440;-72
2023/10/25 03:53:33;;;;;;;8.90;4.13;;;;;;;11.58;100.00;99793.53;5016087;28;20428;-72
2023/10/25 03:56:00;;;;;;;6.17;3.20;;;;;;;11.57;100.00;99796.56;5015802;28;20519;-72
2023/10/25 03:58:28;;;;;;;6.77;3.10;;;;;;;11.52;100.00;99786.72;5016101;28;20450;-72
2023/10/25 04:00:59;;;;;;;6.20;3.50;;;;;;;11.52;100.00;99785.91;5015797;28;20862;-72
2023/10/25 04:03:26;;;;;;;7.07;3.60;;;;;;;11.49;100.00;99786.56;5015847;28;20806;-71
2023/10/25 04:05:53;;;;;;;6.10;3.33;;;;;;;11.46;100.00;99789.91;5015643;28;20991;-72
2023/10/25 04:08:20;;;;;;;11.97;4.30;;;;;;;11.46;100.00;99788.00;5016198;28;20428;-72
2023/10/25 04:10:50;;;;;;;5.80;2.97;;;;;;;11.47;100.00;99786.09;5015810;28;20452;-72
2023/10/25 04:13:17;;;;;;;5.50;2.90;;;;;;;11.47;100.00;99789.59;5016075;28;20482;-71
2023/10/25 04:15:54;;;;;;;9.93;4.43;;;;;;;11.46;100.00;99782.56;5015601;28;20903;-71
2023/10/25 04:18:21;;;;;;;7.00;3.33;;;;;;;11.45;100.00;99785.63;5015721;28;20503;-71
2023/10/25 04:20:48;;;;;;;7.10;3.03;;;;;;;11.43;100.00;99785.16;5031140;23;20583;-67
2023/10/25 04:23:14;;;;;;;10.03;3.50;;;;;;;11.45;100.00;99791.03;5016163;28;20535;-67
2023/10/25 04:25:41;;;;;;;5.30;3.00;;;;;;;11.43;100.00;99783.25;5016304;28;20491;-67
2023/10/25 04:28:07;;;;;;;5.57;3.40;;;;;;;11.38;100.00;99786.13;5015743;28;20531;-67
2023/10/25 04:30:34;;;;;;;6.30;3.10;;;;;;;11.35;100.00;99776.72;5016002;28;20530;-67
2023/10/25 04:33:03;;;;;;;5.30;2.93;;;;;;;11.33;100.00;99781.69;5016556;28;20448;-67
2023/10/25 04:35:29;;;;;;;8.33;3.70;;;;;;;11.28;100.00;99781.06;5015464;28;20498;-67
2023/10/25 04:37:56;;;;;;;7.53;4.13;;;;;;;11.23;100.00;99784.75;5015537;28;20527;-67
2023/10/25 04:40:23;;;;;;;7.00;2.93;;;;;;;11.21;100.00;99778.88;5016223;28;20440;-66
2023/10/25 04:42:50;;;;;;;5.63;2.80;;;;;;;11.14;100.00;99786.69;5015427;28;20535;-66
2023/10/25 04:45:17;;;;;;;8.03;3.30;;;;;;;11.11;100.00;99787.34;5016067;28;20514;-66
2023/10/25 04:47:43;;;;;;;8.90;3.50;;;;;;;11.06;100.00;99780.19;5015951;28;20484;-70
2023/10/25 04:50:12;;;;;;;5.10;2.60;;;;;;;10.98;100.00;99778.31;5015597;28;20436;-66
2023/10/25 04:52:38;;;;;;;4.27;2.27;;;;;;;10.95;100.00;99768.13;5015506;28;20444;-66
2023/10/25 04:55:06;;;;;;;5.03;2.67;;;;;;;10.97;100.00;99765.88;5015364;28;20468;-66
2023/10/25 04:57:34;;;;;;;5.70;3.20;;;;;;;10.98;100.00;99759.34;5015248;28;20811;-66
2023/10/25 05:00:01;;;;;;;4.67;2.53;;;;;;;11.01;100.00;99761.38;5015309;28;20444;-66
2023/10/25 05:02:28;;;;;;;5.93;3.07;;;;;;;11.04;100.00;99759.97;5015687;28;20471;-66
2023/10/25 05:04:56;;;;;;;6.40;2.90;;;;;;;11.03;100.00;99753.75;5015410;28;20530;-67
2023/10/25 05:07:24;;;;;;;7.63;2.93;;;;;;;11.05;100.00;99750.69;5014951;28;20498;-67
2023/10/25 05:09:51;;;;;;;6.87;3.20;;;;;;;11.07;100.00;99748.47;5015376;28;20440;-67
2023/10/25 05:12:25;;;;;;;6.70;3.27;;;;;;;11.09;100.00;99754.34;5015025;28;20531;-67
2023/10/25 05:14:52;;;;;;;7.67;3.07;;;;;;;11.07;100.00;99751.97;5014957;28;20543;-67
2023/10/25 05:17:19;;;;;;;5.80;3.10;;;;;;;11.11;100.00;99755.63;5015188;28;20570;-67
2023/10/25 05:19:46;;;;;;;8.00;3.70;;;;;;;11.08;100.00;99753.56;5015060;28;20440;-67
2023/10/25 05:22:15;;;;;;;5.20;2.83;;;;;;;11.07;100.00;99754.69;5014847;28;20444;-66
2023/10/25 05:24:44;;;;;;;5.50;2.70;;;;;;;11.04;100.00;99754.53;5015139;28;20466;-66
2023/10/25 05:27:11;;;;;;;6.30;3.03;;;;;;;11.06;100.00;99758.50;5014866;28;20440;-68
2023/10/25 05:29:38;;;;;;;7.33;3.40;;;;;;;11.08;100.00;99752.78;5015053;28;20535;-66
2023/10/25 05:32:11;;;;;;;4.43;1.90;;;;;;;11.11;100.00;99754.81;5014703;28;20902;-66
2023/10/25 05:34:38;;;;;;;6.50;3.10;;;;;;;11.09;100.00;99762.47;5014996;28;20547;-66
2023/10/25 05:37:05;;;;;;;5.77;2.27;;;;;;;11.06;100.00;99760.41;5014562;28;20492;-66
2023/10/25 05:39:33;;;;;;;6.60;3.03;;;;;;;11.03;100.00;99763.78;5014592;28;20806;-66
2023/10/25 05:42:05;;;;;;;6.57;3.63;;;;;;;10.98;100.00;99758.53;5014762;28;20448;-66
2023/10/25 05:44:32;;;;;;;6.50;3.13;;;;;;;10.89;100.00;99760.47;5014031;28;20487;-66
2023/10/25 05:46:59;;;;;;;7.00;2.60;;;;;;;10.85;100.00;99753.00;5014849;28;20472;-66
2023/10/25 05:49:26;;;;;;;7.53;3.37;;;;;;;10.81;100.00;99752.06;5014395;28;20875;-66
2023/10/25 05:51:53;;;;;;;7.17;2.67;;;;;;;10.75;100.00;99764.16;5014228;28;20476;-66
2023/10/25 05:54:20;;;;;;;11.80;3.17;;;;;;;10.75;100.00;99764.16;5014459;28;20524;-65
2023/10/25 05:56:47;;;;;;;5.07;2.67;;;;;;;10.70;100.00;99767.03;5013928;28;20490;-67
2023/10/25 05:59:16;;;;;;;7.80;3.30;;;;;;;10.72;100.00;99778.38;5014786;28;20523;-66
2023/10/25 06:01:48;;;;;;;6.90;3.37;;;;;;;10.75;100.00;99768.78;5014626;28;20472;-67
2023/10/25 06:04:15;;;;;;;5.80;3.13;;;;;;;10.81;100.00;99773.72;5013935;28;20543;-66
2023/10/25 06:06:44;;;;;;;5.87;2.77;;;;;;;10.90;100.00;99768.28;5014494;28;20449;-66
2023/10/25 06:09:11;;;;;;;6.33;3.17;;;;;;;10.97;100.00;99775.91;5014488;28;20853;-66
2023/10/25 06:11:40;;;;;;;9.40;4.10;;;;;;;11.01;100.00;99779.56;5014112;28;20444;-67
2023/10/25 06:14:08;;;;;;;11.07;4.37;;;;;;;11.02;100.00;99779.25;5014213;28;20460;-66
2023/10/25 06:16:36;;;;;;;6.17;3.40;;;;;;;11.09;100.00;99782.25;5013974;28;20520;-67
2023/10/25 06:19:03;;;;;;;8.80;4.17;;;;;;;11.13;100.00;99778.91;5014273;28;20450;-67
2023/10/25 06:21:29;;;;;;;5.50;2.90;;;;;;;11.12;100.00;99778.09;5013754;28;20451;-67
2023/10/25 06:23:56;;;;;;;6.67;3.13;;;;;;;11.16;100.00;99779.06;5013855;28;20470;-67
2023/10/25 06:26:24;;;;;;;7.03;4.47;;;;;;;11.16;100.00;99783.69;5013844;28;20462;-67
2023/10/25 06:28:50;;;;;;;7.57;3.83;;;;;;;11.13;100.00;99789.75;5014553;28;20518;-67
2023/10/25 06:31:17;;;;;;;6.27;3.63;;;;;;;11.02;100.00;99783.84;5014038;28;20510;-67
2023/10/25 06:33:45;;;;;;;7.13;3.47;;;;;;;10.98;100.00;99785.63;5013408;28;20459;-67
2023/10/25 06:36:13;;;;;;;6.93;3.67;;;;;;;10.96;100.00;99788.66;5014315;28;21008;-66
2023/10/25 06:38:40;;;;;;;6.57;3.37;;;;;;;10.94;100.00;99790.91;5013491;28;20444;-66
2023/10/25 06:41:14;;;;;;;9.27;3.83;;;;;;;10.99;100.00;99793.44;5014029;28;20531;-66
2023/10/25 06:43:41;;;;;;;6.03;2.60;;;;;;;10.98;100.00;99800.00;5014412;28;20431;-66
2023/10/25 06:46:09;;;;;;;7.60;3.07;;;;;;;10.95;100.00;99797.91;5013934;28;20436;-66
2023/10/25 06:48:36;;;;;;;11.10;3.73;;;;;;;10.88;100.00;99799.53;5014079;28;20494;-67
2023/10/25 06:51:06;;;;;;;7.20;3.13;;;;;;;10.83;100.00;99812.13;5013542;28;20507;-67
2023/10/25 06:53:33;;;;;;;6.57;3.87;;;;;;;10.89;100.00;99803.81;5014083;28;20815;-67
2023/10/25 06:56:01;;;;;;;8.23;3.17;;;;;;;10.95;100.00;99806.06;5014011;28;20516;-67
2023/10/25 06:58:28;;;;;;;5.23;2.70;;;;;;;10.92;100.00;99800.47;5013552;28;20991;-67
2023/10/25 07:00:56;;;;;;;5.87;3.10;;;;;;;10.84;100.00;99808.28;5013693;28;20452;-67
2023/10/25 07:03:28;;;;;;;5.90;2.53;;;;;;;10.83;100.00;99803.19;5013795;28;20532;-67
2023/10/25 07:05:56;;;;;;;14.20;3.90;;;;;;;10.79;100.00;99810.38;5014287;28;20499;-69
2023/10/25 07:08:25;;;;;;;5.93;3.10;;;;;;;10.81;100.00;99806.25;5013679;28;20483;-69
2023/10/25 07:10:51;;;;;;;5.90;2.73;;;;;;;10.78;100.00;99808.78;5014282;28;20440;-69
2023/10/25 07:13:18;;;;;;;4.83;1.97;;;;;;;10.78;100.00;99811.50;5013525;28;20471;-68
2023/10/25 07:15:45;;;;;;;6.20;2.90;;;;;;;10.73;100.00;99812.47;5016921;28;20456;-69
2023/10/25 07:18:11;;;;;;;8.03;2.67;;;;;;;10.71;100.00;99811.97;5017368;28;20494;-69
2023/10/25 07:20:38;;;;;;;6.10;3.07;;;;;;;10.72;100.00;99816.28;5016813;28;20487;-69
2023/10/25 07:23:04;;;;;;;4.90;2.63;;;;;;;10.72;100.00;99815.50;5017450;28;20446;-69
2023/10/25 07:25:32;;;;;;;5.90;2.60;;;;;;;10.74;100.00;99815.97;5017302;28;20460;-69
2023/10/25 07:27:59;;;;;;;5.10;2.83;;;;;;;10.68;100.00;99817.25;5016715;28;20959;-72
2023/10/25 07:30:26;;;;;;;5.87;2.70;;;;;;;10.67;100.00;99818.34;5016946;28;20539;-69
2023/10/25 07:32:52;;;;;;;5.50;2.63;;;;;;;10.73;100.00;99811.66;5017082;28;20440;-69
2023/10/25 07:35:19;;;;;;;10.50;3.00;;;;;;;10.77;100.00;99818.03;5016711;28;20460;-69
2023/10/25 07:37:46;;;;;;;7.90;3.13;;;;;;;10.85;100.00;99815.31;5017049;28;20480;-68
2023/10/25 07:40:13;;;;;;;8.43;2.87;;;;;;;10.95;100.00;99819.59;5016394;28;20450;-68
2023/10/25 07:42:41;;;;;;;5.73;2.50;;;;;;;11.02;100.00;99821.78;5016832;28;20878;-68
2023/10/25 07:45:08;;;;;;;6.23;3.03;;;;;;;11.10;100.00;99818.28;5017124;28;20500;-68
2023/10/25 07:47:35;;;;;;;9.83;3.23;;;;;;;11.15;100.00;99812.66;5016808;28;20452;-66
2023/10/25 07:50:04;;;;;;;6.90;3.30;;;;;;;11.18;100.00;99816.66;5016598;28;20972;-66
2023/10/25 07:52:31;;;;;;;7.93;3.63;;;;;;;11.17;100.00;99807.75;5016262;28;20937;-66
2023/10/25 07:54:57;;;;;;;7.60;2.70;;;;;;;11.18;100.00;99803.91;5016711;28;20527;-67
2023/10/25 07:57:26;;;;;;;6.27;3.03;;;;;;;11.25;100.00;99803.41;5016409;28;20523;-66
2023/10/25 07:59:54;;;;;;;9.23;4.00;;;;;;;11.25;100.00;99792.56;5015956;28;20527;-66
2023/10/25 08:02:21;;;;;;;8.23;3.40;;;;;;;11.27;100.00;99796.53;5016397;28;20878;-67
2023/10/25 08:04:47;;;;;;;5.10;2.63;;;;;;;11.39;100.00;99797.78;5016829;28;20551;-69
2023/10/25 08:07:14;;;;;;;6.87;3.50;;;;;;;11.45;100.00;99789.13;5016824;28;20526;-68
2023/10/25 08:09:42;;;;;;;5.87;2.40;;;;;;;11.53;100.00;99785.56;5016406;28;20454;-67
2023/10/25 08:12:09;;;;;;;5.83;2.37;;;;;;;11.57;100.00;99783.00;5015894;28;20570;-67
2023/10/25 08:14:36;;;;;;;8.53;3.33;;;;;;;11.65;100.00;99774.03;5015952;28;20464;-67
2023/10/25 08:17:05;;;;;;;6.47;2.67;;;;;;;11.62;100.00;99785.53;5016091;28;20480;-69
2023/10/25 08:19:32;;;;;;;6.80;3.17;;;;;;;11.69;100.00;99782.31;5016329;28;20444;-67
2023/10/25 08:21:58;;;;;;;6.70;3.50;;;;;;;11.73;100.00;99788.66;5015829;28;20520;-67
2023/10/25 08:24:25;;;;;;;8.60;3.70;;;;;;;11.75;100.00;99789.94;5015799;28;20995;-67
2023/10/25 08:26:53;;;;;;;6.73;2.57;;;;;;;11.81;100.00;99783.19;5015252;28;20464;-67
2023/10/25 08:29:19;;;;;;;7.00;3.43;;;;;;;11.88;100.00;99780.00;5016079;28;20443;-67
2023/10/25 08:31:46;;;;;;;7.67;3.03;;;;;;;11.97;100.00;99779.94;5016114;28;20527;-67
2023/10/25 08:34:14;;;;;;;10.30;4.27;;;;;;;12.06;100.00;99784.16;5015646;28;20455;-67
2023/10/25 08:36:41;;;;;;;5.03;2.73;;;;;;;12.10;100.00;99787.81;5015651;28;21047;-67
2023/10/25 08:39:09;;;;;;;8.30;3.67;;;;;;;12.16;100.00;99790.31;5016099;28;20495;-67
2023/10/25 08:41:36;;;;;;;6.50;2.90;;;;;;;12.25;100.00;99791.84;5015904;28;20447;-67
2023/10/25 08:44:03;;;;;;;6.77;3.60;;;;;;;12.32;100.00;99796.75;5015303;28;20985;-67
2023/10/25 08:46:31;;;;;;;8.13;3.50;;;;;;;12.38;100.00;99801.63;5015963;28;20507;-67
2023/10/25 08:48:59;;;;;;;7.70;3.83;;;;;;;12.49;100.00;99803.97;5015561;28;20444;-67
2023/10/25 08:51:27;;;;;;;9.67;4.07;;;;;;;12.58;100.00;99801.97;5015275;28;20531;-67
2023/10/25 08:53:59;;;;;;;7.20;3.37;;;;;;;12.69;100.00;99803.13;5014826;28;20977;-67
2023/10/25 08:56:26;;;;;;;6.83;3.30;;;;;;;12.73;100.00;99801.34;5014944;28;20850;-67
2023/10/25 08:58:53;;;;;;;8.20;3.80;;;;;;;12.72;100.00;99802.47;5015319;28;20436;-67
2023/10/25 09:01:19;;;;;;;8.10;3.27;;;;;;;12.74;100.00;99802.91;5015073;28;20884;-67
2023/10/25 09:03:46;;;;;;;6.73;3.17;;;;;;;12.75;100.00;99803.72;5015910;28;20444;-67
2023/10/25 09:06:23;;;;;;;6.60;3.13;;;;;;;12.77;100.00;99810.41;5015135;28;20440;-67
2023/10/25 09:09:02;;;;;;;12.23;4.07;;;;;;;12.74;100.00;99819.22;5015468;28;20428;-67
2023/10/25 09:11:38;;;;;;;6.50;3.20;;;;;;;12.74;100.00;99821.94;5014646;28;20844;-67
2023/10/25 09:14:05;;;;;;;6.27;2.97;;;;;;;12.65;100.00;99820.44;5015384;28;20470;-67
2023/10/25 09:16:32;;;;;;;5.30;2.50;;;;;;;12.61;100.00;99820.31;5015527;28;20436;-67
2023/10/25 09:19:02;;;;;;;7.73;3.83;;;;;;;12.57;100.00;99820.19;5014497;28;20450;-67
2023/10/25 09:21:29;;;;;;;7.63;3.60;;;;;;;12.56;100.00;99817.78;5014872;28;20555;-67
2023/10/25 09:23:57;;;;;;;6.17;3.40;;;;;;;12.57;100.00;99817.47;5014990;28;20547;-67
2023/10/25 09:26:24;;;;;;;8.73;4.50;;;;;;;12.58;100.00;99810.13;5014952;28;20548;-67
2023/10/25 09:28:53;;;;;;;12.50;3.67;;;;;;;12.56;100.00;99798.78;5014488;28;20471;-67
2023/10/25 09:31:22;;;;;;;8.40;3.73;;;;;;;12.65;100.00;99802.22;5014646;28;20475;-67
2023/10/25 09:33:50;;;;;;;9.90;4.10;;;;;;;12.66;100.00;99794.84;5014537;28;20879;-67
2023/10/25 09:36:17;;;;;;;9.67;4.40;;;;;;;12.60;100.00;99794.28;5014532;28;20483;-67
2023/10/25 09:38:43;;;;;;;6.50;3.70;;;;;;;12.61;100.00;99795.84;5013583;28;20574;-67
2023/10/25 09:41:13;;;;;;;6.63;3.67;;;;;;;12.68;100.00;99800.75;5014477;28;20455;-67
2023/10/25 09:43:47;;;;;;;5.90;3.20;;;;;;;12.72;100.00;99805.19;5014484;28;20452;-67
2023/10/25 09:46:17;;;;;;;9.00;3.80;;;;;;;12.68;100.00;99806.19;5014499;28;20883;-67
2023/10/25 09:48:56;;;;;;;10.63;4.00;;;;;;;12.75;100.00;99801.81;5014496;28;20428;-67
2023/10/25 09:51:34;;;;;;;6.77;3.70;;;;;;;12.84;100.00;99788.94;5014752;28;20421;-67
2023/10/25 09:54:10;;;;;;;7.60;3.70;;;;;;;12.86;100.00;99796.75;5015116;28;20456;-67
2023/10/25 09:56:37;;;;;;;8.23;4.10;;;;;;;12.88;100.00;99794.47;5014235;28;20455;-67
2023/10/25 09:59:05;;;;;;;7.63;4.43;;;;;;;12.93;100.00;99799.72;5013856;28;20805;-67
2023/10/25 10:01:32;;;;;;;5.00;2.70;;;;;;;12.90;100.00;99791.44;5013903;28;20444;-67
2023/10/25 10:04:09;;;;;;;7.43;4.20;;;;;;;12.96;100.00;99780.00;5014680;28;20522;-67
2023/10/25 10:06:40;;;;;;;8.80;3.20;;;;;;;13.08;100.00;99780.03;5014613;28;20470;-67
2023/10/25 10:09:24;;;;;;;6.67;3.10;;;;;;;13.15;100.00;99774.03;5014365;28;20435;-67
2023/10/25 10:11:55;;;;;;;7.80;3.83;;;;;;;13.17;100.00;99777.19;5014419;28;20496;-67
2023/10/25 10:14:34;;;;;;;6.50;4.00;;;;;;;13.16;100.00;99774.84;5014340;28;20466;-68
2023/10/25 10:17:06;;;;;;;7.50;3.83;;;;;;;13.14;100.00;99778.66;5014340;28;20446;-67
2023/10/25 10:22:11;;;;;;;9.57;4.27;;;;;;;13.31;100.00;99779.63;4972731;28;20477;-72
2023/10/25 10:24:40;;;;;;;4.83;2.60;;;;;;;13.42;100.00;99783.50;4974598;28;20465;-72
2023/10/25 10:27:07;;;;;;;8.17;4.50;;;;;;;13.51;100.00;99786.09;4974751;28;20438;-71
2023/10/25 10:29:43;;;;;;;6.53;3.20;;;;;;;13.56;100.00;99783.16;4974654;28;20453;-71
2023/10/25 10:32:11;;;;;;;7.80;3.93;;;;;;;13.53;100.00;99781.91;4974870;28;20476;-71
2023/10/25 10:34:39;;;;;;;6.47;3.50;;;;;;;13.48;100.00;99770.44;4974180;28;20465;-71
2023/10/25 10:37:07;;;;;;;7.93;3.57;;;;;;;13.55;100.00;99776.94;4974474;28;20445;-71
2023/10/25 10:39:34;;;;;;;7.53;3.80;;;;;;;13.55;100.00;99776.13;4974704;28;20536;-71
2023/10/25 10:42:01;;;;;;;6.83;4.23;;;;;;;13.53;100.00;99768.28;4974385;28;20448;-71
2023/10/25 10:44:28;;;;;;;7.33;3.80;;;;;;;13.51;100.00;99761.63;4974697;28;20488;-71
2023/10/25 10:47:00;;;;;;;6.13;3.50;;;;;;;13.65;100.00;99767.50;4974488;28;20994;-72
2023/10/25 10:49:30;;;;;;;8.20;4.30;;;;;;;13.76;100.00;99755.00;4976261;28;20430;-72
2023/10/25 10:51:57;;;;;;;8.40;3.00;;;;;;;13.89;100.00;99755.78;4978870;28;20484;-72
2023/10/25 10:54:24;;;;;;;7.20;3.80;;;;;;;14.01;100.00;99753.03;4977919;28;20990;-73
2023/10/25 10:56:50;;;;;;;6.57;2.77;;;;;;;14.04;100.00;99757.00;4977832;28;20952;-72
2023/10/25 10:59:17;;;;;;;5.57;3.47;;;;;;;14.02;100.00;99754.59;4978281;28;20485;-72
2023/10/25 11:01:44;;;;;;;7.97;3.90;;;;;;;14.31;100.00;99752.72;4978602;28;20442;-72
2023/10/25 11:04:12;;;;;;;7.53;3.53;;;;;;;14.69;100.00;99746.75;4977929;28;20496;-68
2023/10/25 11:06:39;;;;;;;6.03;3.03;;;;;;;15.74;99.17;99748.19;4978062;28;20465;-73
2023/10/25 11:09:08;;;;;;;7.70;3.23;;;;;;;16.22;94.30;99743.34;4977957;28;20478;-68
2023/10/25 11:11:35;;;;;;;8.77;3.20;;;;;;;16.53;93.00;99750.59;4978195;28;20794;-71
2023/10/25 11:14:02;;;;;;;4.63;2.80;;;;;;;16.39;92.13;99754.66;4978072;28;20465;-69
2023/10/25 11:16:30;;;;;;;5.63;2.97;;;;;;;16.43;93.46;99749.25;4977513;28;20897;-73
2023/10/25 11:19:06;;;;;;;5.60;2.53;;;;;;;17.23;88.75;99749.53;4977632;28;20525;-74
2023/10/25 11:21:33;;;;;;;4.83;2.93;;;;;;;17.51;83.98;99749.19;4992051;28;20456;-72
2023/10/25 11:24:03;;;;;;;5.60;2.90;;;;;;;17.67;84.46;99741.59;4997440;28;20467;-72
2023/10/25 11:26:30;;;;;;;5.10;2.47;;;;;;;18.27;80.85;99740.84;4997494;28;20540;-72
2023/10/25 11:28:57;;;;;;;5.40;1.87;;;;;;;18.76;79.08;99742.56;4997170;28;21201;-72